BBD weather

Curtis Field
Brady, Texas, United States

Public forecast

Using degrees Fahrenheit for public forecast. Weather courtesy of forecast.io.

METAR (pilot weather report)

Retrieved 2019/09/21 05:35 UTC (49 minutes ago):

KBBD 210535Z AUTO 16013G22KT 10SM FEW041 26/20 A3002 RMK AO2

TAF (pilot weather forecast)

Retrieved 2019/09/21 06:28 UTC (0 seconds ago):

TAF KBBD 210526Z 2106/2206 17011G17KT P6SM BKN080 FM210900 14010KT P6SM BKN025 FM211500 14011G17KT P6SM BKN035 FM211800 15014G20KT P6SM BKN060